sensor_id;sensor_type;location;lat;lon;timestamp;temperature;humidity
5041;DHT22;2539;52.568;13.364;2024-01-07T00:01:46;-0.80;99.90
5041;DHT22;2539;52.568;13.364;2024-01-07T00:04:15;-0.80;99.90
5041;DHT22;2539;52.568;13.364;2024-01-07T00:06:42;-0.80;99.90
5041;DHT22;2539;52.568;13.364;2024-01-07T00:09:08;-0.80;99.90
5041;DHT22;2539;52.568;13.364;2024-01-07T00:11:35;-0.80;99.90
5041;DHT22;2539;52.568;13.364;2024-01-07T00:14:01;-1.00;99.90
5041;DHT22;2539;52.568;13.364;2024-01-07T00:16:27;-1.00;99.90
5041;DHT22;2539;52.568;13.364;2024-01-07T00:18:54;-1.10;99.90
5041;DHT22;2539;52.568;13.364;2024-01-07T00:21:20;-1.10;99.90
5041;DHT22;2539;52.568;13.364;2024-01-07T00:23:46;-1.10;99.90
5041;DHT22;2539;52.568;13.364;2024-01-07T00:26:12;-1.10;99.90
5041;DHT22;2539;52.568;13.364;2024-01-07T00:28:39;-1.10;99.90
5041;DHT22;2539;52.568;13.364;2024-01-07T00:31:05;-1.10;99.90
5041;DHT22;2539;52.568;13.364;2024-01-07T00:33:34;-1.20;99.90
5041;DHT22;2539;52.568;13.364;2024-01-07T00:36:01;-1.20;99.90
5041;DHT22;2539;52.568;13.364;2024-01-07T00:38:28;-1.10;99.90
5041;DHT22;2539;52.568;13.364;2024-01-07T00:40:54;-1.20;99.90
5041;DHT22;2539;52.568;13.364;2024-01-07T00:43:20;-1.20;99.90
5041;DHT22;2539;52.568;13.364;2024-01-07T00:45:46;-1.20;99.90
5041;DHT22;2539;52.568;13.364;2024-01-07T00:48:14;-1.20;99.90
5041;DHT22;2539;52.568;13.364;2024-01-07T00:50:40;-1.20;99.90
5041;DHT22;2539;52.568;13.364;2024-01-07T00:53:07;-1.20;99.90
5041;DHT22;2539;52.568;13.364;2024-01-07T00:55:33;-1.20;99.90
5041;DHT22;2539;52.568;13.364;2024-01-07T00:58:01;-1.30;99.90
5041;DHT22;2539;52.568;13.364;2024-01-07T01:00:28;-1.30;99.90
5041;DHT22;2539;52.568;13.364;2024-01-07T01:03:01;-1.30;99.90
5041;DHT22;2539;52.568;13.364;2024-01-07T01:05:27;-1.30;99.90
5041;DHT22;2539;52.568;13.364;2024-01-07T01:07:53;-1.30;99.90
5041;DHT22;2539;52.568;13.364;2024-01-07T01:10:19;-1.30;99.90
5041;DHT22;2539;52.568;13.364;2024-01-07T01:12:46;-1.30;99.90
5041;DHT22;2539;52.568;13.364;2024-01-07T01:15:12;-1.30;99.90
5041;DHT22;2539;52.568;13.364;2024-01-07T01:17:38;-1.40;99.90
5041;DHT22;2539;52.568;13.364;2024-01-07T01:20:05;-1.40;99.90
5041;DHT22;2539;52.568;13.364;2024-01-07T01:22:31;-1.40;99.90
5041;DHT22;2539;52.568;13.364;2024-01-07T01:25:04;-1.40;99.90
5041;DHT22;2539;52.568;13.364;2024-01-07T01:27:31;-1.50;99.90
5041;DHT22;2539;52.568;13.364;2024-01-07T01:29:57;-1.60;99.90
5041;DHT22;2539;52.568;13.364;2024-01-07T01:32:23;-1.60;99.90
5041;DHT22;2539;52.568;13.364;2024-01-07T01:34:49;-1.60;99.90
5041;DHT22;2539;52.568;13.364;2024-01-07T01:37:16;-1.70;99.90
5041;DHT22;2539;52.568;13.364;2024-01-07T01:39:42;-1.70;99.90
5041;DHT22;2539;52.568;13.364;2024-01-07T01:42:08;-1.80;99.90
5041;DHT22;2539;52.568;13.364;2024-01-07T01:44:34;-1.80;99.90
5041;DHT22;2539;52.568;13.364;2024-01-07T01:47:01;-1.90;99.90
5041;DHT22;2539;52.568;13.364;2024-01-07T01:49:28;-1.90;99.90
5041;DHT22;2539;52.568;13.364;2024-01-07T01:51:54;-2.00;99.90
5041;DHT22;2539;52.568;13.364;2024-01-07T01:54:21;-1.90;99.90
5041;DHT22;2539;52.568;13.364;2024-01-07T01:56:48;-2.00;99.90
5041;DHT22;2539;52.568;13.364;2024-01-07T01:59:15;-2.00;99.90
5041;DHT22;2539;52.568;13.364;2024-01-07T02:01:42;-2.00;99.90
5041;DHT22;2539;52.568;13.364;2024-01-07T02:04:08;-2.00;99.90
5041;DHT22;2539;52.568;13.364;2024-01-07T02:06:36;-2.00;99.90
5041;DHT22;2539;52.568;13.364;2024-01-07T02:09:02;-2.00;99.90
5041;DHT22;2539;52.568;13.364;2024-01-07T02:11:28;-2.00;99.90
5041;DHT22;2539;52.568;13.364;2024-01-07T02:13:55;-2.00;99.90
5041;DHT22;2539;52.568;13.364;2024-01-07T02:16:21;-2.00;99.90
5041;DHT22;2539;52.568;13.364;2024-01-07T02:18:47;-2.00;99.90
5041;DHT22;2539;52.568;13.364;2024-01-07T02:21:14;-2.00;99.90
5041;DHT22;2539;52.568;13.364;2024-01-07T02:23:41;-2.10;99.90
5041;DHT22;2539;52.568;13.364;2024-01-07T02:26:07;-2.10;99.90
5041;DHT22;2539;52.568;13.364;2024-01-07T02:28:34;-2.10;99.90
5041;DHT22;2539;52.568;13.364;2024-01-07T02:31:00;-2.10;99.90
5041;DHT22;2539;52.568;13.364;2024-01-07T02:33:26;-2.10;99.90
5041;DHT22;2539;52.568;13.364;2024-01-07T02:35:54;-2.10;99.90
5041;DHT22;2539;52.568;13.364;2024-01-07T02:38:20;-2.20;99.90
5041;DHT22;2539;52.568;13.364;2024-01-07T02:40:46;-2.20;99.90
5041;DHT22;2539;52.568;13.364;2024-01-07T02:43:12;-2.20;99.90
5041;DHT22;2539;52.568;13.364;2024-01-07T02:45:39;-2.30;99.90
5041;DHT22;2539;52.568;13.364;2024-01-07T02:48:05;-2.30;99.90
5041;DHT22;2539;52.568;13.364;2024-01-07T02:50:32;-2.40;99.90
5041;DHT22;2539;52.568;13.364;2024-01-07T02:52:58;-2.40;99.90
5041;DHT22;2539;52.568;13.364;2024-01-07T02:55:24;-2.40;99.90
5041;DHT22;2539;52.568;13.364;2024-01-07T02:57:51;-2.50;99.90
5041;DHT22;2539;52.568;13.364;2024-01-07T03:00:17;-2.40;99.90
5041;DHT22;2539;52.568;13.364;2024-01-07T03:02:43;-2.50;99.90
5041;DHT22;2539;52.568;13.364;2024-01-07T03:05:09;-2.50;99.90
5041;DHT22;2539;52.568;13.364;2024-01-07T03:07:38;-2.50;99.90
5041;DHT22;2539;52.568;13.364;2024-01-07T03:10:06;-2.60;99.90
5041;DHT22;2539;52.568;13.364;2024-01-07T03:12:32;-2.60;99.90
5041;DHT22;2539;52.568;13.364;2024-01-07T03:14:58;-2.50;99.90
5041;DHT22;2539;52.568;13.364;2024-01-07T03:17:24;-2.50;99.90
5041;DHT22;2539;52.568;13.364;2024-01-07T03:19:51;-2.60;99.90
5041;DHT22;2539;52.568;13.364;2024-01-07T03:22:17;-2.60;99.90
5041;DHT22;2539;52.568;13.364;2024-01-07T03:24:43;-2.70;99.90
5041;DHT22;2539;52.568;13.364;2024-01-07T03:27:09;-2.70;99.90
5041;DHT22;2539;52.568;13.364;2024-01-07T03:29:36;-2.70;99.90
5041;DHT22;2539;52.568;13.364;2024-01-07T03:32:02;-2.70;99.90
5041;DHT22;2539;52.568;13.364;2024-01-07T03:34:28;-2.70;99.90
5041;DHT22;2539;52.568;13.364;2024-01-07T03:36:54;-2.70;99.90
5041;DHT22;2539;52.568;13.364;2024-01-07T03:39:21;-2.70;99.90
5041;DHT22;2539;52.568;13.364;2024-01-07T03:41:47;-2.70;99.90
5041;DHT22;2539;52.568;13.364;2024-01-07T03:44:13;-2.70;99.90
5041;DHT22;2539;52.568;13.364;2024-01-07T03:46:40;-2.80;99.90
5041;DHT22;2539;52.568;13.364;2024-01-07T03:49:06;-2.80;99.90
5041;DHT22;2539;52.568;13.364;2024-01-07T03:51:32;-2.80;99.90
5041;DHT22;2539;52.568;13.364;2024-01-07T03:53:59;-2.80;99.90
5041;DHT22;2539;52.568;13.364;2024-01-07T03:56:25;-2.80;99.90
5041;DHT22;2539;52.568;13.364;2024-01-07T03:58:51;-2.80;99.90
5041;DHT22;2539;52.568;13.364;2024-01-07T04:01:17;-2.70;99.90
5041;DHT22;2539;52.568;13.364;2024-01-07T04:03:44;-2.70;99.90
5041;DHT22;2539;52.568;13.364;2024-01-07T04:06:10;-2.70;99.90
5041;DHT22;2539;52.568;13.364;2024-01-07T04:08:36;-2.70;99.90
5041;DHT22;2539;52.568;13.364;2024-01-07T04:11:03;-2.70;99.90
5041;DHT22;2539;52.568;13.364;2024-01-07T04:13:29;-2.80;99.90
5041;DHT22;2539;52.568;13.364;2024-01-07T04:15:55;-2.80;99.90
5041;DHT22;2539;52.568;13.364;2024-01-07T04:18:21;-2.80;99.90
5041;DHT22;2539;52.568;13.364;2024-01-07T04:20:48;-2.80;99.90
5041;DHT22;2539;52.568;13.364;2024-01-07T04:23:14;-2.80;99.90
5041;DHT22;2539;52.568;13.364;2024-01-07T04:25:40;-2.70;99.90
5041;DHT22;2539;52.568;13.364;2024-01-07T04:28:08;-2.70;99.90
5041;DHT22;2539;52.568;13.364;2024-01-07T04:30:35;-2.60;99.90
5041;DHT22;2539;52.568;13.364;2024-01-07T04:33:02;-2.60;99.90
5041;DHT22;2539;52.568;13.364;2024-01-07T04:35:28;-2.50;99.90
5041;DHT22;2539;52.568;13.364;2024-01-07T04:37:54;-2.50;99.90
5041;DHT22;2539;52.568;13.364;2024-01-07T04:40:20;-2.50;99.90
5041;DHT22;2539;52.568;13.364;2024-01-07T04:42:47;-2.50;99.90
5041;DHT22;2539;52.568;13.364;2024-01-07T04:45:13;-2.50;99.90
5041;DHT22;2539;52.568;13.364;2024-01-07T04:47:39;-2.50;99.90
5041;DHT22;2539;52.568;13.364;2024-01-07T04:50:06;-2.40;99.90
5041;DHT22;2539;52.568;13.364;2024-01-07T04:52:32;-2.50;99.90
5041;DHT22;2539;52.568;13.364;2024-01-07T04:54:58;-2.50;99.90
5041;DHT22;2539;52.568;13.364;2024-01-07T04:57:25;-2.40;99.90
5041;DHT22;2539;52.568;13.364;2024-01-07T04:59:51;-2.40;99.90
5041;DHT22;2539;52.568;13.364;2024-01-07T05:02:18;-2.30;99.90
5041;DHT22;2539;52.568;13.364;2024-01-07T05:04:44;-2.30;99.90
5041;DHT22;2539;52.568;13.364;2024-01-07T05:07:11;-2.30;99.90
5041;DHT22;2539;52.568;13.364;2024-01-07T05:09:37;-2.30;99.90
5041;DHT22;2539;52.568;13.364;2024-01-07T05:12:03;-2.30;99.90
5041;DHT22;2539;52.568;13.364;2024-01-07T05:14:30;-2.30;99.90
5041;DHT22;2539;52.568;13.364;2024-01-07T05:16:56;-2.20;99.90
5041;DHT22;2539;52.568;13.364;2024-01-07T05:19:22;-2.20;99.90
5041;DHT22;2539;52.568;13.364;2024-01-07T05:21:49;-2.20;99.90
5041;DHT22;2539;52.568;13.364;2024-01-07T05:24:15;-2.10;99.90
5041;DHT22;2539;52.568;13.364;2024-01-07T05:26:43;-2.10;99.90
5041;DHT22;2539;52.568;13.364;2024-01-07T05:29:11;-2.10;99.90
5041;DHT22;2539;52.568;13.364;2024-01-07T05:31:41;-2.00;99.90
5041;DHT22;2539;52.568;13.364;2024-01-07T05:34:07;-2.00;99.90
5041;DHT22;2539;52.568;13.364;2024-01-07T05:36:34;-1.90;99.90
5041;DHT22;2539;52.568;13.364;2024-01-07T05:39:00;-1.90;99.90
5041;DHT22;2539;52.568;13.364;2024-01-07T05:41:26;-1.90;99.90
5041;DHT22;2539;52.568;13.364;2024-01-07T05:43:53;-1.90;99.90
5041;DHT22;2539;52.568;13.364;2024-01-07T05:46:19;-1.90;99.90
5041;DHT22;2539;52.568;13.364;2024-01-07T05:48:47;-1.90;99.90
5041;DHT22;2539;52.568;13.364;2024-01-07T05:51:14;-1.90;99.90
5041;DHT22;2539;52.568;13.364;2024-01-07T05:53:42;-1.80;99.90
5041;DHT22;2539;52.568;13.364;2024-01-07T05:56:09;-1.80;99.90
5041;DHT22;2539;52.568;13.364;2024-01-07T05:58:35;-1.70;99.90
5041;DHT22;2539;52.568;13.364;2024-01-07T06:01:02;-1.80;99.90
5041;DHT22;2539;52.568;13.364;2024-01-07T06:03:28;-1.80;99.90
5041;DHT22;2539;52.568;13.364;2024-01-07T06:05:54;-1.80;99.90
5041;DHT22;2539;52.568;13.364;2024-01-07T06:08:21;-1.80;99.90
5041;DHT22;2539;52.568;13.364;2024-01-07T06:10:47;-1.80;99.90
5041;DHT22;2539;52.568;13.364;2024-01-07T06:13:13;-1.80;99.90
5041;DHT22;2539;52.568;13.364;2024-01-07T06:15:39;-1.90;99.90
5041;DHT22;2539;52.568;13.364;2024-01-07T06:18:06;-1.80;99.90
5041;DHT22;2539;52.568;13.364;2024-01-07T06:20:32;-1.80;99.90
5041;DHT22;2539;52.568;13.364;2024-01-07T06:22:58;-1.70;99.90
5041;DHT22;2539;52.568;13.364;2024-01-07T06:25:24;-1.70;99.90
5041;DHT22;2539;52.568;13.364;2024-01-07T06:27:52;-1.70;99.90
5041;DHT22;2539;52.568;13.364;2024-01-07T06:30:18;-1.70;99.90
5041;DHT22;2539;52.568;13.364;2024-01-07T06:32:45;-1.70;99.90
5041;DHT22;2539;52.568;13.364;2024-01-07T06:35:11;-1.70;99.90
5041;DHT22;2539;52.568;13.364;2024-01-07T06:37:38;-1.70;99.90
5041;DHT22;2539;52.568;13.364;2024-01-07T06:40:04;-1.80;99.90
5041;DHT22;2539;52.568;13.364;2024-01-07T06:42:30;-1.80;99.90
5041;DHT22;2539;52.568;13.364;2024-01-07T06:44:57;-1.70;99.90
5041;DHT22;2539;52.568;13.364;2024-01-07T06:47:23;-1.80;99.90
5041;DHT22;2539;52.568;13.364;2024-01-07T06:49:49;-1.60;99.90
5041;DHT22;2539;52.568;13.364;2024-01-07T06:52:16;-1.60;99.90
5041;DHT22;2539;52.568;13.364;2024-01-07T06:54:42;-1.60;99.90
5041;DHT22;2539;52.568;13.364;2024-01-07T06:57:08;-1.60;99.90
5041;DHT22;2539;52.568;13.364;2024-01-07T06:59:35;-1.60;99.90
5041;DHT22;2539;52.568;13.364;2024-01-07T07:02:01;-1.70;99.90
5041;DHT22;2539;52.568;13.364;2024-01-07T07:04:27;-1.70;99.90
5041;DHT22;2539;52.568;13.364;2024-01-07T07:06:54;-1.70;99.90
5041;DHT22;2539;52.568;13.364;2024-01-07T07:09:20;-1.70;99.90
5041;DHT22;2539;52.568;13.364;2024-01-07T07:11:46;-1.60;99.90
5041;DHT22;2539;52.568;13.364;2024-01-07T07:14:12;-1.70;99.90
5041;DHT22;2539;52.568;13.364;2024-01-07T07:16:39;-1.70;99.90
5041;DHT22;2539;52.568;13.364;2024-01-07T07:19:05;-1.70;99.90
5041;DHT22;2539;52.568;13.364;2024-01-07T07:21:31;-1.70;99.90
5041;DHT22;2539;52.568;13.364;2024-01-07T07:23:58;-1.70;99.90
5041;DHT22;2539;52.568;13.364;2024-01-07T07:26:24;-1.60;99.90
5041;DHT22;2539;52.568;13.364;2024-01-07T07:28:50;-1.60;99.90
5041;DHT22;2539;52.568;13.364;2024-01-07T07:31:17;-1.60;99.90
5041;DHT22;2539;52.568;13.364;2024-01-07T07:33:43;-1.40;99.90
5041;DHT22;2539;52.568;13.364;2024-01-07T07:36:09;-1.40;99.90
5041;DHT22;2539;52.568;13.364;2024-01-07T07:38:35;-1.40;99.90
5041;DHT22;2539;52.568;13.364;2024-01-07T07:41:01;-1.30;99.90
5041;DHT22;2539;52.568;13.364;2024-01-07T07:43:28;-1.30;99.90
5041;DHT22;2539;52.568;13.364;2024-01-07T07:45:55;-1.30;99.90
5041;DHT22;2539;52.568;13.364;2024-01-07T07:48:21;-1.30;99.90
5041;DHT22;2539;52.568;13.364;2024-01-07T07:50:48;-1.30;99.90
5041;DHT22;2539;52.568;13.364;2024-01-07T07:53:15;-1.40;99.90
5041;DHT22;2539;52.568;13.364;2024-01-07T07:55:41;-1.40;99.90
5041;DHT22;2539;52.568;13.364;2024-01-07T07:58:08;-1.50;99.90
5041;DHT22;2539;52.568;13.364;2024-01-07T08:00:34;-1.50;99.90
5041;DHT22;2539;52.568;13.364;2024-01-07T08:03:00;-1.50;99.90
5041;DHT22;2539;52.568;13.364;2024-01-07T08:05:26;-1.60;99.90
5041;DHT22;2539;52.568;13.364;2024-01-07T08:07:53;-1.60;99.90
5041;DHT22;2539;52.568;13.364;2024-01-07T08:10:19;-1.60;99.90
5041;DHT22;2539;52.568;13.364;2024-01-07T08:12:47;-1.60;99.90
5041;DHT22;2539;52.568;13.364;2024-01-07T08:15:14;-1.60;99.90
5041;DHT22;2539;52.568;13.364;2024-01-07T08:17:41;-1.50;99.90
5041;DHT22;2539;52.568;13.364;2024-01-07T08:20:07;-1.60;99.90
5041;DHT22;2539;52.568;13.364;2024-01-07T08:22:34;-1.50;99.90
5041;DHT22;2539;52.568;13.364;2024-01-07T08:25:01;-1.50;99.90
5041;DHT22;2539;52.568;13.364;2024-01-07T08:27:27;-1.40;99.90
5041;DHT22;2539;52.568;13.364;2024-01-07T08:29:55;-1.40;99.90
5041;DHT22;2539;52.568;13.364;2024-01-07T08:32:21;-1.40;99.90
5041;DHT22;2539;52.568;13.364;2024-01-07T08:34:48;-1.50;99.90
5041;DHT22;2539;52.568;13.364;2024-01-07T08:37:15;-1.40;99.90
5041;DHT22;2539;52.568;13.364;2024-01-07T08:39:41;-1.40;99.90
5041;DHT22;2539;52.568;13.364;2024-01-07T08:42:07;-1.30;99.90
5041;DHT22;2539;52.568;13.364;2024-01-07T08:44:34;-1.30;99.90
5041;DHT22;2539;52.568;13.364;2024-01-07T08:46:59;-1.20;99.90
5041;DHT22;2539;52.568;13.364;2024-01-07T08:49:28;-1.10;99.90
5041;DHT22;2539;52.568;13.364;2024-01-07T08:51:53;-1.00;99.90
5041;DHT22;2539;52.568;13.364;2024-01-07T08:54:22;-1.00;99.90
5041;DHT22;2539;52.568;13.364;2024-01-07T08:56:49;-0.90;99.90
5041;DHT22;2539;52.568;13.364;2024-01-07T08:59:15;-1.10;99.90
5041;DHT22;2539;52.568;13.364;2024-01-07T09:01:41;-0.90;99.90
5041;DHT22;2539;52.568;13.364;2024-01-07T09:04:08;-0.80;99.90
5041;DHT22;2539;52.568;13.364;2024-01-07T09:06:34;-0.80;99.90
5041;DHT22;2539;52.568;13.364;2024-01-07T09:09:00;-0.80;99.90
5041;DHT22;2539;52.568;13.364;2024-01-07T09:11:26;-0.90;99.90
5041;DHT22;2539;52.568;13.364;2024-01-07T09:13:53;-0.90;99.90
5041;DHT22;2539;52.568;13.364;2024-01-07T09:16:19;-0.90;99.90
5041;DHT22;2539;52.568;13.364;2024-01-07T09:18:45;-0.90;99.90
5041;DHT22;2539;52.568;13.364;2024-01-07T09:21:12;-0.90;99.90
5041;DHT22;2539;52.568;13.364;2024-01-07T09:23:38;-0.80;99.90
5041;DHT22;2539;52.568;13.364;2024-01-07T09:26:05;-0.80;99.90
5041;DHT22;2539;52.568;13.364;2024-01-07T09:28:31;-0.80;99.90
5041;DHT22;2539;52.568;13.364;2024-01-07T09:30:57;-0.80;99.90
5041;DHT22;2539;52.568;13.364;2024-01-07T09:33:24;-0.80;99.90
5041;DHT22;2539;52.568;13.364;2024-01-07T09:35:50;-0.80;99.90
5041;DHT22;2539;52.568;13.364;2024-01-07T09:38:17;-0.80;99.90
5041;DHT22;2539;52.568;13.364;2024-01-07T09:40:43;-0.70;99.90
5041;DHT22;2539;52.568;13.364;2024-01-07T09:43:09;-0.70;99.90
5041;DHT22;2539;52.568;13.364;2024-01-07T09:45:37;-0.80;99.90
5041;DHT22;2539;52.568;13.364;2024-01-07T09:48:05;-0.70;99.90
5041;DHT22;2539;52.568;13.364;2024-01-07T09:50:32;-0.70;99.90
5041;DHT22;2539;52.568;13.364;2024-01-07T09:52:58;-0.90;99.90
5041;DHT22;2539;52.568;13.364;2024-01-07T09:55:33;-0.80;99.90
5041;DHT22;2539;52.568;13.364;2024-01-07T09:58:00;-0.80;99.90
5041;DHT22;2539;52.568;13.364;2024-01-07T10:00:27;-0.80;99.90
5041;DHT22;2539;52.568;13.364;2024-01-07T10:02:53;-0.80;99.90
5041;DHT22;2539;52.568;13.364;2024-01-07T10:05:20;-0.80;99.90
5041;DHT22;2539;52.568;13.364;2024-01-07T10:07:46;-0.70;99.90
5041;DHT22;2539;52.568;13.364;2024-01-07T10:10:16;-0.80;99.90
5041;DHT22;2539;52.568;13.364;2024-01-07T10:12:46;-0.80;99.90
5041;DHT22;2539;52.568;13.364;2024-01-07T10:15:13;-0.80;99.90
5041;DHT22;2539;52.568;13.364;2024-01-07T10:17:42;-0.80;99.90
5041;DHT22;2539;52.568;13.364;2024-01-07T10:20:09;-0.70;99.90
5041;DHT22;2539;52.568;13.364;2024-01-07T10:22:39;-0.70;99.90
5041;DHT22;2539;52.568;13.364;2024-01-07T10:25:06;-0.60;99.90
5041;DHT22;2539;52.568;13.364;2024-01-07T10:27:36;-0.50;99.90
5041;DHT22;2539;52.568;13.364;2024-01-07T10:30:04;-0.50;99.90
5041;DHT22;2539;52.568;13.364;2024-01-07T10:32:30;-0.40;99.90
5041;DHT22;2539;52.568;13.364;2024-01-07T10:35:02;-0.40;99.90
5041;DHT22;2539;52.568;13.364;2024-01-07T10:37:29;-0.40;99.90
5041;DHT22;2539;52.568;13.364;2024-01-07T10:39:59;-0.30;99.90
5041;DHT22;2539;52.568;13.364;2024-01-07T10:42:32;-0.30;99.90
5041;DHT22;2539;52.568;13.364;2024-01-07T10:45:02;-0.30;99.90
5041;DHT22;2539;52.568;13.364;2024-01-07T10:47:30;-0.20;99.90
5041;DHT22;2539;52.568;13.364;2024-01-07T10:50:02;-0.20;99.90
5041;DHT22;2539;52.568;13.364;2024-01-07T10:52:28;-0.20;99.90
5041;DHT22;2539;52.568;13.364;2024-01-07T10:54:57;-0.10;99.90
5041;DHT22;2539;52.568;13.364;2024-01-07T10:57:46;-0.10;99.90
5041;DHT22;2539;52.568;13.364;2024-01-07T11:00:13;-0.10;99.90
5041;DHT22;2539;52.568;13.364;2024-01-07T11:03:07;0.00;99.90
5041;DHT22;2539;52.568;13.364;2024-01-07T11:08:28;-0.10;99.90
5041;DHT22;2539;52.568;13.364;2024-01-07T11:11:06;-0.10;99.90
5041;DHT22;2539;52.568;13.364;2024-01-07T11:13:35;-0.20;99.90
5041;DHT22;2539;52.568;13.364;2024-01-07T11:16:02;-0.10;99.90
5041;DHT22;2539;52.568;13.364;2024-01-07T11:18:28;-0.10;99.90
5041;DHT22;2539;52.568;13.364;2024-01-07T11:21:01;-0.20;99.90
5041;DHT22;2539;52.568;13.364;2024-01-07T11:23:37;-0.10;99.90
5041;DHT22;2539;52.568;13.364;2024-01-07T11:26:08;-0.20;99.90
5041;DHT22;2539;52.568;13.364;2024-01-07T11:31:09;0.00;99.90
5041;DHT22;2539;52.568;13.364;2024-01-07T11:33:41;0.00;99.90
5041;DHT22;2539;52.568;13.364;2024-01-07T11:36:07;-0.20;99.90
5041;DHT22;2539;52.568;13.364;2024-01-07T11:38:34;-0.10;99.90
5041;DHT22;2539;52.568;13.364;2024-01-07T11:41:03;-0.10;99.90
5041;DHT22;2539;52.568;13.364;2024-01-07T11:43:32;0.00;99.90
5041;DHT22;2539;52.568;13.364;2024-01-07T11:46:00;0.00;99.90
5041;DHT22;2539;52.568;13.364;2024-01-07T11:48:27;0.00;99.90
5041;DHT22;2539;52.568;13.364;2024-01-07T11:50:53;0.00;99.90
5041;DHT22;2539;52.568;13.364;2024-01-07T11:53:20;-0.10;99.90
5041;DHT22;2539;52.568;13.364;2024-01-07T11:55:47;-0.20;99.90
5041;DHT22;2539;52.568;13.364;2024-01-07T11:58:13;-0.10;99.90
5041;DHT22;2539;52.568;13.364;2024-01-07T12:00:40;-0.10;99.90
5041;DHT22;2539;52.568;13.364;2024-01-07T12:03:06;-0.10;99.90
5041;DHT22;2539;52.568;13.364;2024-01-07T12:05:32;-0.10;99.90
5041;DHT22;2539;52.568;13.364;2024-01-07T12:08:00;-0.10;99.90
5041;DHT22;2539;52.568;13.364;2024-01-07T12:10:27;0.00;99.90
5041;DHT22;2539;52.568;13.364;2024-01-07T12:12:54;0.10;99.90
5041;DHT22;2539;52.568;13.364;2024-01-07T12:15:22;0.20;99.90
5041;DHT22;2539;52.568;13.364;2024-01-07T12:17:56;0.20;99.90
5041;DHT22;2539;52.568;13.364;2024-01-07T12:20:23;0.30;99.90
5041;DHT22;2539;52.568;13.364;2024-01-07T12:22:49;0.40;99.90
5041;DHT22;2539;52.568;13.364;2024-01-07T12:25:21;0.30;99.90
5041;DHT22;2539;52.568;13.364;2024-01-07T12:27:51;0.20;99.90
5041;DHT22;2539;52.568;13.364;2024-01-07T12:30:20;0.20;99.90
5041;DHT22;2539;52.568;13.364;2024-01-07T12:32:46;0.30;99.90
5041;DHT22;2539;52.568;13.364;2024-01-07T12:35:13;0.30;99.90
5041;DHT22;2539;52.568;13.364;2024-01-07T12:37:39;0.20;99.90
5041;DHT22;2539;52.568;13.364;2024-01-07T12:40:06;0.20;99.90
5041;DHT22;2539;52.568;13.364;2024-01-07T12:42:35;0.20;99.90
5041;DHT22;2539;52.568;13.364;2024-01-07T12:45:01;0.20;99.90
5041;DHT22;2539;52.568;13.364;2024-01-07T12:47:27;0.20;99.90
5041;DHT22;2539;52.568;13.364;2024-01-07T12:49:54;0.30;99.90
5041;DHT22;2539;52.568;13.364;2024-01-07T12:52:20;0.30;99.90
5041;DHT22;2539;52.568;13.364;2024-01-07T12:54:46;0.30;99.90
5041;DHT22;2539;52.568;13.364;2024-01-07T12:57:13;0.30;99.90
5041;DHT22;2539;52.568;13.364;2024-01-07T12:59:39;0.30;99.90
5041;DHT22;2539;52.568;13.364;2024-01-07T13:02:06;0.30;99.90
5041;DHT22;2539;52.568;13.364;2024-01-07T13:04:32;0.20;99.90
5041;DHT22;2539;52.568;13.364;2024-01-07T13:06:58;0.30;99.90
5041;DHT22;2539;52.568;13.364;2024-01-07T13:09:24;0.30;99.90
5041;DHT22;2539;52.568;13.364;2024-01-07T13:11:51;0.30;99.90
5041;DHT22;2539;52.568;13.364;2024-01-07T13:14:17;0.30;99.90
5041;DHT22;2539;52.568;13.364;2024-01-07T13:16:43;0.40;99.90
5041;DHT22;2539;52.568;13.364;2024-01-07T13:19:10;0.30;99.90
5041;DHT22;2539;52.568;13.364;2024-01-07T13:21:38;0.30;99.90
5041;DHT22;2539;52.568;13.364;2024-01-07T13:24:04;0.30;99.90
5041;DHT22;2539;52.568;13.364;2024-01-07T13:26:30;0.40;99.90
5041;DHT22;2539;52.568;13.364;2024-01-07T13:28:59;0.40;99.90
5041;DHT22;2539;52.568;13.364;2024-01-07T13:31:25;0.40;99.90
5041;DHT22;2539;52.568;13.364;2024-01-07T13:33:51;0.30;99.90
5041;DHT22;2539;52.568;13.364;2024-01-07T13:36:17;0.40;99.90
5041;DHT22;2539;52.568;13.364;2024-01-07T13:38:43;0.40;99.90
5041;DHT22;2539;52.568;13.364;2024-01-07T13:41:10;0.30;99.90
5041;DHT22;2539;52.568;13.364;2024-01-07T13:43:37;0.30;99.90
5041;DHT22;2539;52.568;13.364;2024-01-07T13:46:06;0.30;99.90
5041;DHT22;2539;52.568;13.364;2024-01-07T13:48:33;0.30;99.90
5041;DHT22;2539;52.568;13.364;2024-01-07T13:51:00;0.30;99.90
5041;DHT22;2539;52.568;13.364;2024-01-07T13:53:26;0.30;99.90
5041;DHT22;2539;52.568;13.364;2024-01-07T13:55:53;0.30;99.90
5041;DHT22;2539;52.568;13.364;2024-01-07T13:58:19;0.30;99.90
5041;DHT22;2539;52.568;13.364;2024-01-07T14:00:46;0.30;99.90
5041;DHT22;2539;52.568;13.364;2024-01-07T14:03:12;0.20;99.90
5041;DHT22;2539;52.568;13.364;2024-01-07T14:05:38;0.20;99.90
5041;DHT22;2539;52.568;13.364;2024-01-07T14:08:05;0.20;99.90
5041;DHT22;2539;52.568;13.364;2024-01-07T14:10:32;0.20;99.90
5041;DHT22;2539;52.568;13.364;2024-01-07T14:12:58;0.20;99.90
5041;DHT22;2539;52.568;13.364;2024-01-07T14:15:24;0.20;99.90
5041;DHT22;2539;52.568;13.364;2024-01-07T14:17:51;0.20;99.90
5041;DHT22;2539;52.568;13.364;2024-01-07T14:20:17;0.10;99.90
5041;DHT22;2539;52.568;13.364;2024-01-07T14:22:44;0.10;99.90
5041;DHT22;2539;52.568;13.364;2024-01-07T14:25:09;0.20;99.90
5041;DHT22;2539;52.568;13.364;2024-01-07T14:27:35;0.20;99.90
5041;DHT22;2539;52.568;13.364;2024-01-07T14:30:01;0.20;99.90
5041;DHT22;2539;52.568;13.364;2024-01-07T14:32:28;0.20;99.90
5041;DHT22;2539;52.568;13.364;2024-01-07T14:34:54;0.20;99.90
5041;DHT22;2539;52.568;13.364;2024-01-07T14:37:20;0.10;99.90
5041;DHT22;2539;52.568;13.364;2024-01-07T14:39:46;0.10;99.90
5041;DHT22;2539;52.568;13.364;2024-01-07T14:42:12;0.10;99.90
5041;DHT22;2539;52.568;13.364;2024-01-07T14:44:37;0.10;99.90
5041;DHT22;2539;52.568;13.364;2024-01-07T14:47:03;0.10;99.90
5041;DHT22;2539;52.568;13.364;2024-01-07T14:49:29;0.10;99.90
5041;DHT22;2539;52.568;13.364;2024-01-07T14:51:55;0.10;99.90
5041;DHT22;2539;52.568;13.364;2024-01-07T14:54:22;0.10;99.90
5041;DHT22;2539;52.568;13.364;2024-01-07T14:56:48;0.10;99.90
5041;DHT22;2539;52.568;13.364;2024-01-07T14:59:15;0.10;99.90
5041;DHT22;2539;52.568;13.364;2024-01-07T15:01:41;0.10;99.90
5041;DHT22;2539;52.568;13.364;2024-01-07T15:04:10;0.10;99.90
5041;DHT22;2539;52.568;13.364;2024-01-07T15:06:42;0.10;99.90
5041;DHT22;2539;52.568;13.364;2024-01-07T15:09:08;0.00;99.90
5041;DHT22;2539;52.568;13.364;2024-01-07T15:11:35;0.00;99.90
5041;DHT22;2539;52.568;13.364;2024-01-07T15:14:01;0.00;99.90
5041;DHT22;2539;52.568;13.364;2024-01-07T15:16:34;0.00;99.90
5041;DHT22;2539;52.568;13.364;2024-01-07T15:19:02;0.00;99.90
5041;DHT22;2539;52.568;13.364;2024-01-07T15:21:28;0.00;99.90
5041;DHT22;2539;52.568;13.364;2024-01-07T15:23:55;0.00;99.90
5041;DHT22;2539;52.568;13.364;2024-01-07T15:26:21;0.00;99.90
5041;DHT22;2539;52.568;13.364;2024-01-07T15:28:47;0.00;99.90
5041;DHT22;2539;52.568;13.364;2024-01-07T15:31:14;0.00;99.90
5041;DHT22;2539;52.568;13.364;2024-01-07T15:33:40;-0.10;99.90
5041;DHT22;2539;52.568;13.364;2024-01-07T15:36:07;-0.10;99.90
5041;DHT22;2539;52.568;13.364;2024-01-07T15:38:33;-0.10;99.90
5041;DHT22;2539;52.568;13.364;2024-01-07T15:41:00;-0.10;99.90
5041;DHT22;2539;52.568;13.364;2024-01-07T15:43:26;-0.10;99.90
5041;DHT22;2539;52.568;13.364;2024-01-07T15:45:53;-0.10;99.90
5041;DHT22;2539;52.568;13.364;2024-01-07T15:48:19;-0.10;99.90
5041;DHT22;2539;52.568;13.364;2024-01-07T15:50:46;-0.10;99.90
5041;DHT22;2539;52.568;13.364;2024-01-07T15:53:12;-0.20;99.90